PKREY WARR-WARR
Flight info
| Callsign | PKREY |
|---|---|
| Flight time | 0h 36m |
| Altitude | 1500 |
| Route | CIRCUIT |
| Aircraft | C172/L-SFG/C |
Departure
| Time | 2026-05-08 16:53 |
|---|---|
| Airport | Juanda International Airport (WARR) |
Arrival
| Time | 2026-05-08 17:29 |
|---|---|
| Airport | Juanda International Airport (WARR) |
| Time | Latitude | Longitude | Altitude | Speed | Heading |
|---|---|---|---|---|---|
| 2026-05-08 16:39 | -7.37552 | 112.78255 | 4 ft | 0 kts | 9° |
| 2026-05-08 16:42 | -7.37553 | 112.78255 | 4 ft | 0 kts | 9° |
| 2026-05-08 16:49 | -7.37551 | 112.78255 | 4 ft | 3 kts | 354° |
| 2026-05-08 16:50 | -7.37547 | 112.78242 | 4 ft | 5 kts | 233° |
| 2026-05-08 16:50 | -7.37610 | 112.78238 | 4 ft | 13 kts | 229° |
| 2026-05-08 16:50 | -7.37632 | 112.78166 | 4 ft | 10 kts | 213° |
| 2026-05-08 16:50 | -7.37712 | 112.78138 | 4 ft | 16 kts | 218° |
| 2026-05-08 16:51 | -7.37752 | 112.78039 | 4 ft | 15 kts | 178° |
| 2026-05-08 16:51 | -7.37824 | 112.78101 | 4 ft | 13 kts | 130° |
| 2026-05-08 16:51 | -7.37886 | 112.78163 | 3 ft | 14 kts | 130° |
| 2026-05-08 16:51 | -7.37922 | 112.78307 | 3 ft | 40 kts | 99° |
| 2026-05-08 16:52 | -7.37992 | 112.78729 | 25 ft | 76 kts | 97° |
| 2026-05-08 16:52 | -7.38092 | 112.79302 | 157 ft | 87 kts | 95° |
| 2026-05-08 16:52 | -7.38168 | 112.79909 | 355 ft | 88 kts | 93° |
| 2026-05-08 16:52 | -7.38222 | 112.80532 | 478 ft | 93 kts | 92° |
| 2026-05-08 16:53 | -7.37475 | 112.81317 | 758 ft | 88 kts | 10° |
| 2026-05-08 16:53 | -7.36867 | 112.81395 | 946 ft | 91 kts | 11° |
| 2026-05-08 16:53 | -7.36228 | 112.81441 | 1130 ft | 93 kts | 356° |
| 2026-05-08 16:54 | -7.35728 | 112.81052 | 1336 ft | 96 kts | 297° |
| 2026-05-08 16:54 | -7.35590 | 112.80416 | 1543 ft | 95 kts | 279° |
| 2026-05-08 16:54 | -7.35475 | 112.79758 | 1708 ft | 97 kts | 279° |
| 2026-05-08 16:54 | -7.35379 | 112.79092 | 1890 ft | 98 kts | 276° |
| 2026-05-08 16:55 | -7.35297 | 112.78369 | 1982 ft | 109 kts | 274° |
| 2026-05-08 16:55 | -7.35201 | 112.77610 | 2006 ft | 109 kts | 277° |
| 2026-05-08 16:55 | -7.35087 | 112.76855 | 1962 ft | 110 kts | 278° |
| 2026-05-08 16:55 | -7.34973 | 112.76094 | 1912 ft | 111 kts | 278° |
| 2026-05-08 16:56 | -7.34841 | 112.75334 | 1883 ft | 111 kts | 280° |
| 2026-05-08 16:56 | -7.34706 | 112.74574 | 1884 ft | 109 kts | 279° |
| 2026-05-08 16:56 | -7.34590 | 112.73829 | 1880 ft | 106 kts | 278° |
| 2026-05-08 16:56 | -7.34483 | 112.73100 | 1863 ft | 104 kts | 277° |
| 2026-05-08 16:57 | -7.34506 | 112.72372 | 1761 ft | 101 kts | 243° |
| 2026-05-08 16:57 | -7.34998 | 112.71955 | 1597 ft | 94 kts | 198° |
| 2026-05-08 16:57 | -7.35604 | 112.71719 | 1373 ft | 90 kts | 187° |
| 2026-05-08 16:57 | -7.36233 | 112.71814 | 1228 ft | 99 kts | 152° |
| 2026-05-08 16:58 | -7.36775 | 112.72254 | 1100 ft | 104 kts | 127° |
| 2026-05-08 16:58 | -7.37067 | 112.72890 | 934 ft | 97 kts | 100° |
| 2026-05-08 16:58 | -7.37159 | 112.73571 | 769 ft | 99 kts | 98° |
| 2026-05-08 16:58 | -7.37276 | 112.74265 | 629 ft | 101 kts | 97° |
| 2026-05-08 16:59 | -7.37383 | 112.74941 | 475 ft | 97 kts | 96° |
| 2026-05-08 16:59 | -7.37492 | 112.75606 | 372 ft | 96 kts | 95° |
| 2026-05-08 16:59 | -7.37597 | 112.76265 | 255 ft | 93 kts | 95° |
| 2026-05-08 16:59 | -7.37694 | 112.76900 | 122 ft | 90 kts | 95° |
| 2026-05-08 17:00 | -7.37793 | 112.77515 | 14 ft | 87 kts | 95° |
| 2026-05-08 17:00 | -7.37879 | 112.78040 | 4 ft | 54 kts | 98° |
| 2026-05-08 17:00 | -7.37941 | 112.78430 | 3 ft | 72 kts | 100° |
| 2026-05-08 17:00 | -7.38026 | 112.78999 | 106 ft | 87 kts | 92° |
| 2026-05-08 17:01 | -7.38084 | 112.79604 | 309 ft | 89 kts | 93° |
| 2026-05-08 17:01 | -7.38121 | 112.80255 | 424 ft | 94 kts | 84° |
| 2026-05-08 17:01 | -7.38098 | 112.80940 | 495 ft | 100 kts | 85° |
| 2026-05-08 17:01 | -7.38074 | 112.81636 | 659 ft | 98 kts | 83° |
| 2026-05-08 17:02 | -7.38014 | 112.82293 | 883 ft | 91 kts | 80° |
| 2026-05-08 17:02 | -7.37851 | 112.82903 | 1056 ft | 96 kts | 59° |
| 2026-05-08 17:02 | -7.37218 | 112.83152 | 1231 ft | 106 kts | 9° |
| 2026-05-08 17:02 | -7.36475 | 112.83126 | 1407 ft | 109 kts | 359° |
| 2026-05-08 17:03 | -7.35745 | 112.82934 | 1568 ft | 114 kts | 323° |
| 2026-05-08 17:03 | -7.35379 | 112.82245 | 1701 ft | 114 kts | 282° |
| 2026-05-08 17:03 | -7.35287 | 112.81445 | 1838 ft | 118 kts | 271° |
| 2026-05-08 17:03 | -7.35256 | 112.80620 | 1945 ft | 121 kts | 269° |
| 2026-05-08 17:04 | -7.35226 | 112.79771 | 2011 ft | 121 kts | 264° |
| 2026-05-08 17:04 | -7.35270 | 112.78926 | 1939 ft | 122 kts | 265° |
| 2026-05-08 17:04 | -7.35250 | 112.78076 | 1855 ft | 120 kts | 274° |
| 2026-05-08 17:04 | -7.35166 | 112.77232 | 1728 ft | 122 kts | 274° |
| 2026-05-08 17:05 | -7.35089 | 112.76388 | 1583 ft | 120 kts | 274° |
| 2026-05-08 17:05 | -7.34995 | 112.75571 | 1439 ft | 116 kts | 278° |
| 2026-05-08 17:05 | -7.34896 | 112.74770 | 1308 ft | 111 kts | 267° |
| 2026-05-08 17:05 | -7.35222 | 112.74120 | 1142 ft | 104 kts | 214° |
| 2026-05-08 17:06 | -7.35878 | 112.73871 | 938 ft | 103 kts | 192° |
| 2026-05-08 17:06 | -7.36563 | 112.73809 | 761 ft | 100 kts | 160° |
| 2026-05-08 17:06 | -7.37095 | 112.74204 | 587 ft | 93 kts | 124° |
| 2026-05-08 17:06 | -7.37352 | 112.74770 | 454 ft | 87 kts | 98° |
| 2026-05-08 17:07 | -7.37452 | 112.75393 | 347 ft | 92 kts | 95° |
| 2026-05-08 17:07 | -7.37554 | 112.76029 | 260 ft | 95 kts | 92° |
| 2026-05-08 17:07 | -7.37644 | 112.76694 | 177 ft | 96 kts | 92° |
| 2026-05-08 17:07 | -7.37756 | 112.77367 | 56 ft | 97 kts | 98° |
| 2026-05-08 17:08 | -7.37874 | 112.77999 | 5 ft | 82 kts | 96° |
| 2026-05-08 17:08 | -7.37944 | 112.78461 | 3 ft | 54 kts | 98° |
| 2026-05-08 17:08 | -7.38009 | 112.78839 | 5 ft | 71 kts | 99° |
| 2026-05-08 17:08 | -7.38106 | 112.79403 | 103 ft | 87 kts | 95° |
| 2026-05-08 17:09 | -7.38196 | 112.80024 | 273 ft | 91 kts | 92° |
| 2026-05-08 17:09 | -7.38247 | 112.80653 | 432 ft | 89 kts | 85° |
| 2026-05-08 17:09 | -7.38220 | 112.81287 | 574 ft | 90 kts | 82° |
| 2026-05-08 17:09 | -7.37868 | 112.81722 | 772 ft | 88 kts | 13° |
| 2026-05-08 17:10 | -7.37242 | 112.81757 | 937 ft | 94 kts | 3° |
| 2026-05-08 17:10 | -7.36545 | 112.81732 | 1072 ft | 104 kts | 0° |
| 2026-05-08 17:10 | -7.35863 | 112.81531 | 1292 ft | 110 kts | 318° |
| 2026-05-08 17:10 | -7.35593 | 112.80793 | 1456 ft | 113 kts | 277° |
| 2026-05-08 17:11 | -7.35506 | 112.80013 | 1661 ft | 112 kts | 271° |
| 2026-05-08 17:11 | -7.35480 | 112.79233 | 1859 ft | 109 kts | 268° |
| 2026-05-08 17:11 | -7.35436 | 112.78469 | 2049 ft | 110 kts | 272° |
| 2026-05-08 17:11 | -7.35393 | 112.77671 | 2010 ft | 122 kts | 271° |
| 2026-05-08 17:12 | -7.35361 | 112.76823 | 1944 ft | 119 kts | 273° |
| 2026-05-08 17:12 | -7.35264 | 112.76024 | 1901 ft | 115 kts | 278° |
| 2026-05-08 17:12 | -7.35155 | 112.75232 | 1922 ft | 111 kts | 276° |
| 2026-05-08 17:12 | -7.35363 | 112.74537 | 1961 ft | 102 kts | 222° |
| 2026-05-08 17:13 | -7.35945 | 112.74207 | 1770 ft | 98 kts | 198° |
| 2026-05-08 17:13 | -7.36615 | 112.74027 | 1402 ft | 104 kts | 173° |
| 2026-05-08 17:13 | -7.37166 | 112.74499 | 896 ft | 114 kts | 126° |
| 2026-05-08 17:13 | -7.37423 | 112.75213 | 582 ft | 106 kts | 97° |
| 2026-05-08 17:14 | -7.37551 | 112.75906 | 366 ft | 95 kts | 97° |
| 2026-05-08 17:14 | -7.37654 | 112.76530 | 205 ft | 90 kts | 95° |
| 2026-05-08 17:14 | -7.37748 | 112.77150 | 63 ft | 90 kts | 94° |
| 2026-05-08 17:14 | -7.37839 | 112.77762 | 8 ft | 80 kts | 96° |
| 2026-05-08 17:15 | -7.37915 | 112.78250 | 3 ft | 69 kts | 99° |
| 2026-05-08 17:15 | -7.38009 | 112.78807 | 115 ft | 84 kts | 94° |
| 2026-05-08 17:15 | -7.38076 | 112.79392 | 349 ft | 84 kts | 92° |
| 2026-05-08 17:15 | -7.38125 | 112.79975 | 530 ft | 84 kts | 90° |
| 2026-05-08 17:16 | -7.38143 | 112.80564 | 664 ft | 84 kts | 88° |
| 2026-05-08 17:16 | -7.38129 | 112.81167 | 786 ft | 87 kts | 87° |
| 2026-05-08 17:16 | -7.38101 | 112.81759 | 990 ft | 82 kts | 86° |
| 2026-05-08 17:16 | -7.37695 | 112.82162 | 1152 ft | 96 kts | 9° |
| 2026-05-08 17:17 | -7.36972 | 112.82139 | 1239 ft | 110 kts | 352° |
| 2026-05-08 17:17 | -7.36208 | 112.81997 | 1389 ft | 114 kts | 347° |
| 2026-05-08 17:17 | -7.35674 | 112.81488 | 1572 ft | 114 kts | 284° |
| 2026-05-08 17:17 | -7.35571 | 112.80696 | 1747 ft | 114 kts | 275° |
| 2026-05-08 17:18 | -7.35527 | 112.79888 | 1877 ft | 116 kts | 268° |
| 2026-05-08 17:18 | -7.35574 | 112.79077 | 2005 ft | 117 kts | 268° |
| 2026-05-08 17:18 | -7.35584 | 112.78251 | 1996 ft | 116 kts | 265° |
| 2026-05-08 17:18 | -7.35574 | 112.77462 | 1978 ft | 110 kts | 273° |
| 2026-05-08 17:19 | -7.35531 | 112.76690 | 1984 ft | 111 kts | 275° |
| 2026-05-08 17:19 | -7.35458 | 112.75892 | 1965 ft | 117 kts | 271° |
| 2026-05-08 17:19 | -7.35445 | 112.75067 | 2008 ft | 118 kts | 266° |
| 2026-05-08 17:19 | -7.35461 | 112.74213 | 1988 ft | 121 kts | 264° |
| 2026-05-08 17:20 | -7.35704 | 112.73453 | 1812 ft | 108 kts | 225° |
| 2026-05-08 17:20 | -7.36302 | 112.73078 | 1494 ft | 99 kts | 188° |
| 2026-05-08 17:20 | -7.36994 | 112.73112 | 1062 ft | 107 kts | 157° |
| 2026-05-08 17:20 | -7.37468 | 112.73637 | 753 ft | 104 kts | 95° |
| 2026-05-08 17:21 | -7.37469 | 112.74358 | 544 ft | 99 kts | 89° |
| 2026-05-08 17:21 | -7.37454 | 112.75056 | 453 ft | 102 kts | 84° |
| 2026-05-08 17:21 | -7.37525 | 112.75767 | 333 ft | 104 kts | 93° |
| 2026-05-08 17:21 | -7.37615 | 112.76505 | 218 ft | 108 kts | 96° |
| 2026-05-08 17:22 | -7.37748 | 112.77238 | 74 ft | 99 kts | 96° |
| 2026-05-08 17:22 | -7.37854 | 112.77871 | 5 ft | 81 kts | 96° |
| 2026-05-08 17:22 | -7.37947 | 112.78395 | 12 ft | 84 kts | 97° |
| 2026-05-08 17:22 | -7.38047 | 112.79006 | 157 ft | 92 kts | 96° |
| 2026-05-08 17:23 | -7.38122 | 112.79649 | 352 ft | 92 kts | 93° |
| 2026-05-08 17:23 | -7.38197 | 112.80292 | 469 ft | 94 kts | 92° |
| 2026-05-08 17:23 | -7.38226 | 112.80724 | 549 ft | 95 kts | 88° |
| 2026-05-08 17:23 | -7.38040 | 112.81539 | 773 ft | 92 kts | 42° |
| 2026-05-08 17:24 | -7.37408 | 112.81657 | 966 ft | 97 kts | 1° |
| 2026-05-08 17:24 | -7.36717 | 112.81590 | 1135 ft | 103 kts | 352° |
| 2026-05-08 17:24 | -7.36243 | 112.81520 | 1277 ft | 102 kts | 341° |
| 2026-05-08 17:24 | -7.35770 | 112.80783 | 1532 ft | 105 kts | 263° |
| 2026-05-08 17:25 | -7.35780 | 112.80294 | 1641 ft | 104 kts | 268° |
| 2026-05-08 17:25 | -7.35809 | 112.79320 | 1870 ft | 107 kts | 261° |
| 2026-05-08 17:25 | -7.35881 | 112.78566 | 1983 ft | 108 kts | 260° |
| 2026-05-08 17:25 | -7.35962 | 112.78074 | 2009 ft | 104 kts | 259° |
| 2026-05-08 17:26 | -7.36027 | 112.77357 | 2014 ft | 103 kts | 270° |
| 2026-05-08 17:26 | -7.35971 | 112.76630 | 2000 ft | 104 kts | 278° |
| 2026-05-08 17:26 | -7.35860 | 112.75923 | 1973 ft | 106 kts | 285° |
| 2026-05-08 17:26 | -7.35539 | 112.75262 | 1848 ft | 103 kts | 306° |
| 2026-05-08 17:27 | -7.35477 | 112.74560 | 1570 ft | 105 kts | 240° |
| 2026-05-08 17:27 | -7.36029 | 112.74167 | 1270 ft | 99 kts | 191° |
| 2026-05-08 17:27 | -7.36690 | 112.74051 | 1052 ft | 98 kts | 171° |
| 2026-05-08 17:27 | -7.37288 | 112.74392 | 890 ft | 103 kts | 122° |
| 2026-05-08 17:28 | -7.37393 | 112.75096 | 623 ft | 99 kts | 91° |
| 2026-05-08 17:28 | -7.37479 | 112.75770 | 368 ft | 95 kts | 86° |
| 2026-05-08 17:28 | -7.37611 | 112.76420 | 209 ft | 95 kts | 99° |
| 2026-05-08 17:28 | -7.37703 | 112.77063 | 83 ft | 92 kts | 96° |
| 2026-05-08 17:29 | -7.37821 | 112.77681 | 17 ft | 88 kts | 97° |
| 2026-05-08 17:29 | -7.37917 | 112.78231 | 6 ft | 72 kts | 96° |
| 2026-05-08 17:29 | -7.37976 | 112.78629 | 4 ft | 34 kts | 99° |
| 2026-05-08 17:29 | -7.38010 | 112.78840 | 5 ft | 51 kts | 101° |
| 2026-05-08 17:30 | -7.38098 | 112.79315 | 71 ft | 77 kts | 96° |
| 2026-05-08 17:30 | -7.38169 | 112.79858 | 274 ft | 80 kts | 93° |
| 2026-05-08 17:30 | -7.38211 | 112.80420 | 446 ft | 79 kts | 87° |
| 2026-05-08 17:30 | -7.38185 | 112.80982 | 609 ft | 81 kts | 81° |
| 2026-05-08 17:31 | -7.37824 | 112.81351 | 779 ft | 86 kts | 11° |
| 2026-05-08 17:31 | -7.37222 | 112.81389 | 961 ft | 92 kts | 11° |
| 2026-05-08 17:31 | -7.36568 | 112.81414 | 1170 ft | 95 kts | 3° |
| 2026-05-08 17:31 | -7.35937 | 112.81277 | 1392 ft | 101 kts | 320° |
| 2026-05-08 17:32 | -7.35689 | 112.80597 | 1575 ft | 106 kts | 275° |
| 2026-05-08 17:32 | -7.35574 | 112.79862 | 1755 ft | 107 kts | 271° |
| 2026-05-08 17:32 | -7.35537 | 112.79100 | 1895 ft | 111 kts | 273° |
| 2026-05-08 17:32 | -7.35458 | 112.78335 | 1972 ft | 110 kts | 271° |
| 2026-05-08 17:33 | -7.35390 | 112.77565 | 1965 ft | 111 kts | 276° |
| 2026-05-08 17:33 | -7.35301 | 112.76798 | 1972 ft | 109 kts | 277° |
| 2026-05-08 17:33 | -7.35186 | 112.76041 | 1960 ft | 109 kts | 280° |
| 2026-05-08 17:33 | -7.35392 | 112.75313 | 1672 ft | 118 kts | 226° |
| 2026-05-08 17:34 | -7.36029 | 112.74915 | 1389 ft | 106 kts | 187° |
| 2026-05-08 17:34 | -7.36766 | 112.74781 | 996 ft | 108 kts | 173° |
| 2026-05-08 17:34 | -7.37378 | 112.75150 | 624 ft | 105 kts | 103° |
| 2026-05-08 17:34 | -7.37527 | 112.75849 | 382 ft | 101 kts | 96° |
| 2026-05-08 17:35 | -7.37605 | 112.76541 | 239 ft | 99 kts | 94° |
| 2026-05-08 17:35 | -7.37743 | 112.77212 | 80 ft | 97 kts | 97° |
| 2026-05-08 17:35 | -7.37852 | 112.77856 | 9 ft | 88 kts | 96° |
| 2026-05-08 17:35 | -7.37936 | 112.78374 | 3 ft | 63 kts | 96° |
| 2026-05-08 17:36 | -7.38007 | 112.78820 | 5 ft | 79 kts | 98° |
| 2026-05-08 17:36 | -7.38120 | 112.79419 | 136 ft | 90 kts | 95° |
| 2026-05-08 17:36 | -7.38196 | 112.80064 | 300 ft | 94 kts | 92° |
| 2026-05-08 17:36 | -7.38263 | 112.80723 | 457 ft | 94 kts | 88° |
| 2026-05-08 17:37 | -7.38542 | 112.81290 | 679 ft | 95 kts | 147° |
| 2026-05-08 17:37 | -7.39198 | 112.81279 | 840 ft | 99 kts | 191° |
| 2026-05-08 17:37 | -7.39861 | 112.81089 | 1007 ft | 96 kts | 190° |
| 2026-05-08 17:37 | -7.40485 | 112.80906 | 1199 ft | 95 kts | 197° |
| 2026-05-08 17:38 | -7.40816 | 112.80320 | 1309 ft | 109 kts | 263° |
| 2026-05-08 17:38 | -7.40688 | 112.79564 | 1484 ft | 107 kts | 282° |
| 2026-05-08 17:38 | -7.40542 | 112.78815 | 1603 ft | 109 kts | 281° |
| 2026-05-08 17:38 | -7.40408 | 112.78089 | 1827 ft | 104 kts | 286° |
| 2026-05-08 17:39 | -7.40232 | 112.77394 | 1997 ft | 106 kts | 282° |
| 2026-05-08 17:39 | -7.40063 | 112.76631 | 2008 ft | 115 kts | 282° |
| 2026-05-08 17:39 | -7.39888 | 112.75835 | 2009 ft | 118 kts | 282° |
| 2026-05-08 17:39 | -7.39712 | 112.75030 | 2000 ft | 114 kts | 283° |
| 2026-05-08 17:40 | -7.39549 | 112.74294 | 1989 ft | 101 kts | 282° |
| 2026-05-08 17:40 | -7.39402 | 112.73632 | 1989 ft | 93 kts | 283° |
| 2026-05-08 17:40 | -7.39254 | 112.73013 | 1832 ft | 95 kts | 294° |
| 2026-05-08 17:40 | -7.38796 | 112.72575 | 1643 ft | 95 kts | 352° |
| 2026-05-08 17:41 | -7.38153 | 112.72710 | 1392 ft | 95 kts | 31° |
| 2026-05-08 17:41 | -7.37646 | 112.73123 | 1183 ft | 97 kts | 44° |
| 2026-05-08 17:41 | -7.37350 | 112.73694 | 983 ft | 92 kts | 82° |
| 2026-05-08 17:41 | -7.37367 | 112.74347 | 779 ft | 95 kts | 95° |
| 2026-05-08 17:42 | -7.37433 | 112.74999 | 560 ft | 91 kts | 90° |
| 2026-05-08 17:42 | -7.37520 | 112.75630 | 390 ft | 88 kts | 97° |
| 2026-05-08 17:42 | -7.37615 | 112.76222 | 244 ft | 85 kts | 97° |
| 2026-05-08 17:42 | -7.37697 | 112.76801 | 129 ft | 84 kts | 89° |
| 2026-05-08 17:43 | -7.37767 | 112.77379 | 35 ft | 81 kts | 96° |
| 2026-05-08 17:43 | -7.37854 | 112.77899 | 5 ft | 66 kts | 98° |
| 2026-05-08 17:43 | -7.37934 | 112.78369 | 17 ft | 80 kts | 96° |
| 2026-05-08 17:43 | -7.38010 | 112.78971 | 147 ft | 91 kts | 93° |
| 2026-05-08 17:44 | -7.38085 | 112.79614 | 303 ft | 95 kts | 95° |
| 2026-05-08 17:44 | -7.38159 | 112.80288 | 425 ft | 96 kts | 94° |
| 2026-05-08 17:44 | -7.38230 | 112.80962 | 575 ft | 97 kts | 92° |
| 2026-05-08 17:44 | -7.38019 | 112.81576 | 707 ft | 100 kts | 39° |
| 2026-05-08 17:45 | -7.37368 | 112.81771 | 913 ft | 101 kts | 17° |
| 2026-05-08 17:45 | -7.36648 | 112.81922 | 1035 ft | 109 kts | 15° |
| 2026-05-08 17:45 | -7.35886 | 112.81884 | 1148 ft | 118 kts | 329° |
| 2026-05-08 17:45 | -7.35523 | 112.81170 | 1323 ft | 116 kts | 281° |
| 2026-05-08 17:46 | -7.35356 | 112.80385 | 1523 ft | 114 kts | 281° |
| 2026-05-08 17:46 | -7.35188 | 112.79611 | 1705 ft | 112 kts | 282° |
| 2026-05-08 17:46 | -7.35029 | 112.78847 | 1892 ft | 110 kts | 282° |
| 2026-05-08 17:46 | -7.34865 | 112.78072 | 1971 ft | 120 kts | 282° |
| 2026-05-08 17:47 | -7.34692 | 112.77239 | 1977 ft | 120 kts | 281° |
| 2026-05-08 17:47 | -7.34525 | 112.76435 | 1968 ft | 115 kts | 281° |
| 2026-05-08 17:47 | -7.34360 | 112.75660 | 1963 ft | 111 kts | 281° |
| 2026-05-08 17:47 | -7.34254 | 112.75159 | 1963 ft | 110 kts | 282° |
| 2026-05-08 17:48 | -7.34043 | 112.74158 | 1965 ft | 110 kts | 281° |
| 2026-05-08 17:48 | -7.33882 | 112.73407 | 1967 ft | 110 kts | 282° |
| 2026-05-08 17:48 | -7.33727 | 112.72652 | 1965 ft | 110 kts | 281° |
| 2026-05-08 17:48 | -7.33573 | 112.71895 | 1964 ft | 110 kts | 281° |
| 2026-05-08 17:49 | -7.33418 | 112.71143 | 1966 ft | 110 kts | 281° |
| 2026-05-08 17:49 | -7.33339 | 112.70381 | 1959 ft | 110 kts | 251° |
| 2026-05-08 17:49 | -7.33868 | 112.69919 | 1976 ft | 101 kts | 196° |
| 2026-05-08 17:49 | -7.34541 | 112.69739 | 1973 ft | 99 kts | 169° |
| 2026-05-08 17:50 | -7.35220 | 112.69796 | 1978 ft | 98 kts | 172° |
| 2026-05-08 17:50 | -7.35876 | 112.69961 | 1826 ft | 98 kts | 142° |
| 2026-05-08 17:50 | -7.36368 | 112.70482 | 1673 ft | 106 kts | 123° |
| 2026-05-08 17:50 | -7.36672 | 112.71140 | 1408 ft | 104 kts | 111° |
| 2026-05-08 17:51 | -7.36894 | 112.71831 | 1110 ft | 104 kts | 99° |
| 2026-05-08 17:51 | -7.36952 | 112.72550 | 898 ft | 104 kts | 94° |
| 2026-05-08 17:51 | -7.37099 | 112.73271 | 810 ft | 103 kts | 101° |
| 2026-05-08 17:51 | -7.37240 | 112.73973 | 722 ft | 103 kts | 98° |
| 2026-05-08 17:52 | -7.37351 | 112.74694 | 561 ft | 101 kts | 100° |
| 2026-05-08 17:52 | -7.37471 | 112.75359 | 416 ft | 95 kts | 98° |
| 2026-05-08 17:52 | -7.37670 | 112.76723 | 159 ft | 97 kts | 98° |
| 2026-05-08 17:53 | -7.37776 | 112.77400 | 25 ft | 101 kts | 96° |
| 2026-05-08 17:53 | -7.37889 | 112.78036 | 5 ft | 79 kts | 98° |
| 2026-05-08 17:53 | -7.37959 | 112.78527 | 4 ft | 74 kts | 99° |
| 2026-05-08 17:53 | -7.38058 | 112.79104 | 118 ft | 89 kts | 93° |
| 2026-05-08 17:54 | -7.38156 | 112.79731 | 297 ft | 91 kts | 96° |
| 2026-05-08 17:54 | -7.38252 | 112.80349 | 480 ft | 88 kts | 96° |
| 2026-05-08 17:54 | -7.38352 | 112.80954 | 662 ft | 88 kts | 98° |
| 2026-05-08 17:54 | -7.38216 | 112.81511 | 827 ft | 90 kts | 33° |
| 2026-05-08 17:55 | -7.37589 | 112.81649 | 1023 ft | 94 kts | 17° |
| 2026-05-08 17:55 | -7.36927 | 112.81764 | 1223 ft | 98 kts | 13° |
| 2026-05-08 17:55 | -7.36250 | 112.81878 | 1424 ft | 100 kts | 15° |
| 2026-05-08 17:55 | -7.35602 | 112.81727 | 1606 ft | 106 kts | 309° |
| 2026-05-08 17:56 | -7.35388 | 112.81039 | 1801 ft | 100 kts | 285° |
| 2026-05-08 17:56 | -7.35223 | 112.80368 | 1969 ft | 96 kts | 282° |
| 2026-05-08 17:56 | -7.35043 | 112.79660 | 2011 ft | 112 kts | 283° |
| 2026-05-08 17:56 | -7.34857 | 112.78876 | 2009 ft | 120 kts | 282° |
| 2026-05-08 17:57 | -7.34666 | 112.78044 | 2004 ft | 123 kts | 282° |
| 2026-05-08 17:57 | -7.34475 | 112.77195 | 2006 ft | 125 kts | 282° |
| 2026-05-08 17:57 | -7.34285 | 112.76339 | 2006 ft | 125 kts | 282° |
| 2026-05-08 17:57 | -7.34089 | 112.75476 | 2004 ft | 124 kts | 282° |
| 2026-05-08 17:58 | -7.34017 | 112.74634 | 1993 ft | 123 kts | 249° |
| 2026-05-08 17:58 | -7.34628 | 112.74128 | 2006 ft | 115 kts | 190° |
| 2026-05-08 17:58 | -7.35416 | 112.73901 | 1920 ft | 114 kts | 188° |
| 2026-05-08 17:58 | -7.36221 | 112.73741 | 1458 ft | 113 kts | 176° |
| 2026-05-08 17:59 | -7.36829 | 112.74150 | 1091 ft | 108 kts | 124° |
| 2026-05-08 17:59 | -7.37266 | 112.74787 | 710 ft | 113 kts | 118° |
| 2026-05-08 17:59 | -7.37485 | 112.75513 | 422 ft | 102 kts | 98° |
| 2026-05-08 17:59 | -7.37593 | 112.76211 | 238 ft | 98 kts | 96° |
| 2026-05-08 18:00 | -7.37661 | 112.76656 | 141 ft | 97 kts | 96° |
| 2026-05-08 18:00 | -7.37883 | 112.78055 | 4 ft | 65 kts | 101° |
| 2026-05-08 18:00 | -7.37981 | 112.78601 | 60 ft | 88 kts | 97° |
| 2026-05-08 18:01 | -7.38067 | 112.79236 | 226 ft | 93 kts | 77° |
| 2026-05-08 18:01 | -7.38165 | 112.79881 | 384 ft | 92 kts | 93° |
| 2026-05-08 18:01 | -7.38272 | 112.80498 | 553 ft | 90 kts | 94° |
| 2026-05-08 18:01 | -7.38393 | 112.81125 | 727 ft | 90 kts | 95° |
| 2026-05-08 18:02 | -7.38404 | 112.81729 | 895 ft | 88 kts | 57° |
| 2026-05-08 18:02 | -7.38042 | 112.81896 | 1059 ft | 91 kts | 3° |
| 2026-05-08 18:02 | -7.37194 | 112.82003 | 1315 ft | 95 kts | 7° |
| 2026-05-08 18:02 | -7.36529 | 112.82086 | 1508 ft | 98 kts | 9° |
| 2026-05-08 18:03 | -7.36069 | 112.82134 | 1638 ft | 98 kts | 6° |
| 2026-05-08 18:03 | -7.35355 | 112.81760 | 1922 ft | 100 kts | 276° |
| 2026-05-08 18:03 | -7.35273 | 112.81289 | 2007 ft | 107 kts | 279° |
| 2026-05-08 18:03 | -7.35107 | 112.80490 | 2007 ft | 124 kts | 276° |
| 2026-05-08 18:04 | -7.34939 | 112.79657 | 1986 ft | 115 kts | 278° |
| 2026-05-08 18:04 | -7.34786 | 112.78911 | 1988 ft | 105 kts | 278° |
| 2026-05-08 18:04 | -7.34648 | 112.78191 | 1984 ft | 103 kts | 278° |
| 2026-05-08 18:04 | -7.34516 | 112.77503 | 1988 ft | 101 kts | 278° |
| 2026-05-08 18:05 | -7.34383 | 112.76804 | 1986 ft | 99 kts | 277° |
| 2026-05-08 18:05 | -7.34256 | 112.76124 | 1988 ft | 98 kts | 277° |
| 2026-05-08 18:05 | -7.34126 | 112.75467 | 1987 ft | 96 kts | 278° |
| 2026-05-08 18:05 | -7.34012 | 112.74797 | 1991 ft | 97 kts | 262° |
| 2026-05-08 18:06 | -7.34436 | 112.74423 | 1923 ft | 90 kts | 167° |
| 2026-05-08 18:06 | -7.35129 | 112.74367 | 1716 ft | 103 kts | 182° |
| 2026-05-08 18:06 | -7.35852 | 112.74256 | 1515 ft | 105 kts | 186° |
| 2026-05-08 18:06 | -7.36575 | 112.74199 | 1264 ft | 105 kts | 164° |
| 2026-05-08 18:07 | -7.37206 | 112.74583 | 918 ft | 110 kts | 142° |
| 2026-05-08 18:07 | -7.37513 | 112.75226 | 674 ft | 102 kts | 95° |
| 2026-05-08 18:07 | -7.37597 | 112.75913 | 414 ft | 97 kts | 97° |
| 2026-05-08 18:07 | -7.37689 | 112.76582 | 190 ft | 95 kts | 95° |
| 2026-05-08 18:08 | -7.37765 | 112.77216 | 53 ft | 87 kts | 96° |
| 2026-05-08 18:08 | -7.37846 | 112.77791 | 12 ft | 77 kts | 96° |
| 2026-05-08 18:08 | -7.37913 | 112.78258 | 3 ft | 57 kts | 99° |
| 2026-05-08 18:08 | -7.37986 | 112.78700 | 17 ft | 77 kts | 68° |
| 2026-05-08 18:09 | -7.38059 | 112.79256 | 163 ft | 85 kts | 102° |
| 2026-05-08 18:09 | -7.38164 | 112.79849 | 334 ft | 89 kts | 92° |
| 2026-05-08 18:09 | -7.38212 | 112.80459 | 500 ft | 87 kts | 90° |
| 2026-05-08 18:09 | -7.38284 | 112.81068 | 686 ft | 87 kts | 90° |
| 2026-05-08 18:10 | -7.38297 | 112.81675 | 861 ft | 89 kts | 72° |
| 2026-05-08 18:10 | -7.37775 | 112.81965 | 1068 ft | 94 kts | 7° |
| 2026-05-08 18:10 | -7.37121 | 112.82069 | 1268 ft | 97 kts | 9° |
| 2026-05-08 18:10 | -7.36442 | 112.82161 | 1470 ft | 100 kts | 11° |
| 2026-05-08 18:11 | -7.35752 | 112.82232 | 1665 ft | 101 kts | 1° |
| 2026-05-08 18:11 | -7.35253 | 112.81787 | 1849 ft | 104 kts | 277° |
| 2026-05-08 18:11 | -7.35189 | 112.81057 | 1996 ft | 111 kts | 274° |
| 2026-05-08 18:11 | -7.35115 | 112.80227 | 2007 ft | 126 kts | 273° |
| 2026-05-08 18:12 | -7.35030 | 112.79364 | 2000 ft | 122 kts | 273° |
| 2026-05-08 18:12 | -7.34960 | 112.78521 | 1994 ft | 120 kts | 270° |
| 2026-05-08 18:12 | -7.34891 | 112.77695 | 1989 ft | 118 kts | 271° |
| 2026-05-08 18:12 | -7.34828 | 112.76873 | 1990 ft | 116 kts | 271° |
| 2026-05-08 18:13 | -7.34762 | 112.76077 | 1987 ft | 114 kts | 272° |
| 2026-05-08 18:13 | -7.34697 | 112.75277 | 1991 ft | 115 kts | 272° |
| 2026-05-08 18:13 | -7.34633 | 112.74463 | 1994 ft | 117 kts | 272° |
| 2026-05-08 18:13 | -7.34569 | 112.73638 | 1996 ft | 118 kts | 269° |
| 2026-05-08 18:14 | -7.34942 | 112.72977 | 2005 ft | 111 kts | 198° |
| 2026-05-08 18:14 | -7.35683 | 112.72840 | 1916 ft | 110 kts | 157° |
| 2026-05-08 18:14 | -7.36319 | 112.73301 | 1467 ft | 123 kts | 109° |
| 2026-05-08 18:14 | -7.36817 | 112.73977 | 1293 ft | 123 kts | 123° |
| 2026-05-08 18:15 | -7.37216 | 112.74683 | 965 ft | 111 kts | 109° |
| 2026-05-08 18:15 | -7.37460 | 112.75412 | 619 ft | 107 kts | 97° |
| 2026-05-08 18:15 | -7.37557 | 112.76132 | 322 ft | 100 kts | 98° |
| 2026-05-08 18:15 | -7.37673 | 112.76790 | 133 ft | 92 kts | 96° |
| 2026-05-08 18:16 | -7.37783 | 112.77387 | 30 ft | 83 kts | 96° |
| 2026-05-08 18:16 | -7.37860 | 112.77901 | 5 ft | 63 kts | 96° |
| 2026-05-08 18:16 | -7.37937 | 112.78378 | 8 ft | 85 kts | 99° |
| 2026-05-08 18:16 | -7.38046 | 112.78976 | 199 ft | 85 kts | 94° |
| 2026-05-08 18:17 | -7.38193 | 112.79573 | 374 ft | 88 kts | 99° |
| 2026-05-08 18:17 | -7.38330 | 112.80167 | 562 ft | 87 kts | 97° |
| 2026-05-08 18:17 | -7.38457 | 112.80761 | 732 ft | 86 kts | 97° |
| 2026-05-08 18:17 | -7.38506 | 112.81356 | 909 ft | 87 kts | 65° |
| 2026-05-08 18:18 | -7.37962 | 112.81519 | 1125 ft | 90 kts | 3° |
| 2026-05-08 18:18 | -7.37338 | 112.81611 | 1331 ft | 92 kts | 6° |
| 2026-05-08 18:18 | -7.36685 | 112.81675 | 1517 ft | 95 kts | 5° |
| 2026-05-08 18:18 | -7.36018 | 112.81754 | 1704 ft | 98 kts | 5° |
| 2026-05-08 18:19 | -7.35459 | 112.81460 | 1918 ft | 98 kts | 278° |
| 2026-05-08 18:19 | -7.35348 | 112.80785 | 2020 ft | 108 kts | 282° |
| 2026-05-08 18:19 | -7.35197 | 112.79980 | 2006 ft | 124 kts | 275° |
| 2026-05-08 18:19 | -7.35047 | 112.79112 | 2003 ft | 130 kts | 277° |
| 2026-05-08 18:20 | -7.34894 | 112.78199 | 2001 ft | 134 kts | 276° |
| 2026-05-08 18:20 | -7.34755 | 112.77273 | 2000 ft | 134 kts | 276° |
| 2026-05-08 18:20 | -7.34614 | 112.76345 | 1998 ft | 134 kts | 276° |
| 2026-05-08 18:20 | -7.34476 | 112.75423 | 1990 ft | 133 kts | 277° |
| 2026-05-08 18:21 | -7.34335 | 112.74502 | 1989 ft | 133 kts | 277° |
| 2026-05-08 18:21 | -7.34535 | 112.73632 | 2000 ft | 128 kts | 219° |
| 2026-05-08 18:21 | -7.35355 | 112.73381 | 1707 ft | 126 kts | 178° |
| 2026-05-08 18:21 | -7.36177 | 112.73349 | 1300 ft | 110 kts | 178° |
| 2026-05-08 18:22 | -7.36891 | 112.73623 | 1039 ft | 117 kts | 140° |
| 2026-05-08 18:22 | -7.37329 | 112.74329 | 752 ft | 122 kts | 101° |
| 2026-05-08 18:22 | -7.37438 | 112.75152 | 461 ft | 118 kts | 97° |
| 2026-05-08 18:22 | -7.37551 | 112.75936 | 297 ft | 109 kts | 97° |
| 2026-05-08 18:23 | -7.37663 | 112.76667 | 172 ft | 105 kts | 97° |
| 2026-05-08 18:23 | -7.37777 | 112.77384 | 47 ft | 102 kts | 96° |
| 2026-05-08 18:23 | -7.37883 | 112.78019 | 4 ft | 69 kts | 100° |
| 2026-05-08 18:23 | -7.37939 | 112.78330 | 3 ft | 23 kts | 97° |
| 2026-05-08 18:24 | -7.37959 | 112.78476 | 3 ft | 20 kts | 104° |
| 2026-05-08 18:24 | -7.37986 | 112.78610 | 4 ft | 19 kts | 107° |
| 2026-05-08 18:24 | -7.38079 | 112.78671 | 5 ft | 15 kts | 168° |
| 2026-05-08 18:24 | -7.38169 | 112.78662 | 4 ft | 11 kts | 189° |
| 2026-05-08 18:25 | -7.38241 | 112.78650 | 4 ft | 10 kts | 189° |
| 2026-05-08 18:25 | -7.38317 | 112.78637 | 4 ft | 14 kts | 189° |
| 2026-05-08 18:25 | -7.38385 | 112.78567 | 4 ft | 15 kts | 281° |
| 2026-05-08 18:25 | -7.38355 | 112.78441 | 4 ft | 19 kts | 285° |
| 2026-05-08 18:26 | -7.38349 | 112.78349 | 4 ft | 10 kts | 201° |
| 2026-05-08 18:26 | -7.38403 | 112.78341 | 4 ft | 1 kts | 187° |
| 2026-05-08 18:30 | -7.38403 | 112.78342 | 4 ft | 0 kts | 188° |
| 2026-05-08 18:34 | -7.38391 | 112.78323 | 4 ft | 10 kts | 27° |
| 2026-05-08 18:35 | -7.38322 | 112.78292 | 4 ft | 16 kts | 279° |
| 2026-05-08 18:35 | -7.38300 | 112.78159 | 4 ft | 22 kts | 276° |
| 2026-05-08 18:35 | -7.38275 | 112.77988 | 4 ft | 27 kts | 277° |
| 2026-05-08 18:35 | -7.38170 | 112.77950 | 4 ft | 21 kts | 8° |
| 2026-05-08 18:36 | -7.38011 | 112.77976 | 3 ft | 22 kts | 10° |
| 2026-05-08 18:36 | -7.37949 | 112.78000 | 3 ft | 0 kts | 39° |
| 2026-05-08 18:37 | -7.37941 | 112.78006 | 3 ft | 9 kts | 37° |
| 2026-05-08 18:37 | -7.37888 | 112.78104 | 3 ft | 17 kts | 101° |
| 2026-05-08 18:37 | -7.37892 | 112.78124 | 3 ft | 0 kts | 96° |
| 2026-05-08 18:37 | -7.37893 | 112.78135 | 3 ft | 12 kts | 100° |
| 2026-05-08 18:38 | -7.37937 | 112.78397 | 3 ft | 61 kts | 99° |
| 2026-05-08 18:38 | -7.38026 | 112.78942 | 30 ft | 91 kts | 99° |
| 2026-05-08 18:38 | -7.38111 | 112.79606 | 194 ft | 97 kts | 98° |
| 2026-05-08 18:38 | -7.38185 | 112.80291 | 363 ft | 98 kts | 97° |
| 2026-05-08 18:39 | -7.38220 | 112.80742 | 534 ft | 93 kts | 94° |
| 2026-05-08 18:39 | -7.38411 | 112.81527 | 809 ft | 91 kts | 137° |
| 2026-05-08 18:39 | -7.38799 | 112.81685 | 928 ft | 94 kts | 176° |
| 2026-05-08 18:39 | -7.39668 | 112.81509 | 1122 ft | 98 kts | 189° |
| 2026-05-08 18:40 | -7.40119 | 112.81412 | 1231 ft | 97 kts | 188° |
| 2026-05-08 18:40 | -7.40754 | 112.81241 | 1412 ft | 95 kts | 207° |
| 2026-05-08 18:40 | -7.40954 | 112.80652 | 1600 ft | 97 kts | 280° |
| 2026-05-08 18:40 | -7.40874 | 112.79983 | 1792 ft | 93 kts | 278° |
| 2026-05-08 18:41 | -7.40791 | 112.79342 | 1974 ft | 92 kts | 276° |
| 2026-05-08 18:41 | -7.40694 | 112.78657 | 2011 ft | 105 kts | 276° |
| 2026-05-08 18:41 | -7.40590 | 112.77899 | 2004 ft | 112 kts | 276° |
| 2026-05-08 18:41 | -7.40492 | 112.77108 | 2005 ft | 116 kts | 276° |
| 2026-05-08 18:42 | -7.40394 | 112.76311 | 1998 ft | 111 kts | 276° |
| 2026-05-08 18:42 | -7.40296 | 112.75555 | 1988 ft | 106 kts | 279° |
| 2026-05-08 18:42 | -7.40169 | 112.74832 | 1985 ft | 103 kts | 279° |
| 2026-05-08 18:42 | -7.40045 | 112.74134 | 1991 ft | 99 kts | 279° |
| 2026-05-08 18:43 | -7.39928 | 112.73461 | 1990 ft | 97 kts | 279° |
| 2026-05-08 18:43 | -7.39813 | 112.72794 | 1988 ft | 97 kts | 279° |
| 2026-05-08 18:43 | -7.39697 | 112.72133 | 1988 ft | 95 kts | 279° |
| 2026-05-08 18:43 | -7.39432 | 112.71551 | 1985 ft | 94 kts | 333° |
| 2026-05-08 18:44 | -7.38811 | 112.71551 | 2000 ft | 90 kts | 7° |
| 2026-05-08 18:44 | -7.38143 | 112.71593 | 1864 ft | 98 kts | 6° |
| 2026-05-08 18:44 | -7.37520 | 112.71823 | 1604 ft | 100 kts | 53° |
| 2026-05-08 18:44 | -7.37272 | 112.72502 | 1265 ft | 109 kts | 77° |
| 2026-05-08 18:45 | -7.37173 | 112.73270 | 1009 ft | 109 kts | 90° |
| 2026-05-08 18:45 | -7.37224 | 112.74015 | 806 ft | 106 kts | 98° |
| 2026-05-08 18:45 | -7.37372 | 112.74737 | 686 ft | 99 kts | 103° |
| 2026-05-08 18:45 | -7.37469 | 112.75448 | 473 ft | 105 kts | 95° |
| 2026-05-08 18:46 | -7.37571 | 112.76193 | 211 ft | 108 kts | 100° |
| 2026-05-08 18:46 | -7.37697 | 112.76914 | 81 ft | 103 kts | 100° |
| 2026-05-08 18:46 | -7.37809 | 112.77610 | 3 ft | 93 kts | 102° |
| 2026-05-08 18:46 | -7.37906 | 112.78216 | 22 ft | 95 kts | 98° |
| 2026-05-08 18:47 | -7.38013 | 112.78898 | 154 ft | 102 kts | 100° |
| 2026-05-08 18:47 | -7.38013 | 112.79606 | 368 ft | 98 kts | 90° |
| 2026-05-08 18:47 | -7.38180 | 112.80274 | 534 ft | 99 kts | 103° |
| 2026-05-08 18:47 | -7.38362 | 112.80953 | 676 ft | 101 kts | 111° |
| 2026-05-08 18:48 | -7.38919 | 112.81303 | 804 ft | 103 kts | 184° |
| 2026-05-08 18:48 | -7.39617 | 112.81176 | 942 ft | 101 kts | 187° |
| 2026-05-08 18:48 | -7.40304 | 112.81035 | 1086 ft | 100 kts | 188° |
| 2026-05-08 18:48 | -7.40945 | 112.80778 | 1220 ft | 105 kts | 227° |
| 2026-05-08 18:49 | -7.41027 | 112.80062 | 1376 ft | 108 kts | 278° |
| 2026-05-08 18:49 | -7.40874 | 112.79320 | 1529 ft | 109 kts | 282° |
| 2026-05-08 18:49 | -7.40701 | 112.78583 | 1672 ft | 108 kts | 283° |
| 2026-05-08 18:49 | -7.40678 | 112.77850 | 1807 ft | 106 kts | 240° |
| 2026-05-08 18:50 | -7.41068 | 112.77222 | 1972 ft | 106 kts | 238° |
| 2026-05-08 18:50 | -7.41475 | 112.76567 | 2001 ft | 115 kts | 237° |
| 2026-05-08 18:50 | -7.41901 | 112.75886 | 1999 ft | 114 kts | 236° |
| 2026-05-08 18:50 | -7.42323 | 112.75215 | 1998 ft | 113 kts | 236° |
| 2026-05-08 18:51 | -7.42746 | 112.74547 | 1999 ft | 113 kts | 236° |
| 2026-05-08 18:51 | -7.43168 | 112.73876 | 2000 ft | 113 kts | 236° |
| 2026-05-08 18:51 | -7.43590 | 112.73204 | 2001 ft | 114 kts | 236° |
| 2026-05-08 18:51 | -7.44007 | 112.72537 | 2001 ft | 114 kts | 236° |
| 2026-05-08 18:52 | -7.44428 | 112.71861 | 2000 ft | 114 kts | 237° |
| 2026-05-08 18:52 | -7.44801 | 112.71156 | 1999 ft | 114 kts | 249° |
| 2026-05-08 18:52 | -7.45364 | 112.70669 | 1987 ft | 112 kts | 183° |
| 2026-05-08 18:52 | -7.46009 | 112.71013 | 1998 ft | 108 kts | 127° |
| 2026-05-08 18:53 | -7.46194 | 112.71736 | 1999 ft | 109 kts | 91° |
| 2026-05-08 18:53 | -7.45849 | 112.72390 | 1999 ft | 110 kts | 44° |
| 2026-05-08 18:53 | -7.45134 | 112.72653 | 2002 ft | 112 kts | 10° |
| 2026-05-08 18:53 | -7.44357 | 112.72795 | 2005 ft | 113 kts | 11° |
| 2026-05-08 18:54 | -7.43586 | 112.72932 | 2004 ft | 114 kts | 11° |
| 2026-05-08 18:54 | -7.42843 | 112.72765 | 1991 ft | 116 kts | 314° |
| 2026-05-08 18:54 | -7.42530 | 112.72027 | 1996 ft | 116 kts | 274° |
| 2026-05-08 18:54 | -7.42876 | 112.71350 | 1996 ft | 113 kts | 216° |
| 2026-05-08 18:55 | -7.44110 | 112.70375 | 2003 ft | 113 kts | 217° |
| 2026-05-08 18:55 | -7.44732 | 112.69891 | 2003 ft | 113 kts | 217° |
| 2026-05-08 18:55 | -7.45377 | 112.69452 | 1994 ft | 112 kts | 195° |
| 2026-05-08 18:56 | -7.46078 | 112.69665 | 1994 ft | 109 kts | 141° |
| 2026-05-08 18:56 | -7.46660 | 112.70154 | 1989 ft | 110 kts | 124° |
| 2026-05-08 18:56 | -7.46647 | 112.70879 | 1998 ft | 109 kts | 65° |
| 2026-05-08 18:56 | -7.46330 | 112.71576 | 2003 ft | 109 kts | 67° |
| 2026-05-08 18:57 | -7.46010 | 112.72270 | 2005 ft | 109 kts | 66° |
| 2026-05-08 18:57 | -7.45795 | 112.72734 | 2004 ft | 110 kts | 64° |
| 2026-05-08 18:57 | -7.44909 | 112.73100 | 2002 ft | 113 kts | 356° |
| 2026-05-08 18:57 | -7.44122 | 112.73052 | 2004 ft | 114 kts | 354° |
| 2026-05-08 18:58 | -7.43521 | 112.72576 | 1994 ft | 115 kts | 289° |
| 2026-05-08 18:58 | -7.43454 | 112.71791 | 1992 ft | 115 kts | 246° |
| 2026-05-08 18:58 | -7.44064 | 112.71373 | 1993 ft | 110 kts | 182° |
| 2026-05-08 18:58 | -7.44799 | 112.71195 | 2002 ft | 111 kts | 198° |
| 2026-05-08 18:59 | -7.45535 | 112.70961 | 2005 ft | 111 kts | 197° |
| 2026-05-08 18:59 | -7.46277 | 112.70997 | 1992 ft | 110 kts | 142° |
| 2026-05-08 18:59 | -7.46682 | 112.71635 | 2004 ft | 109 kts | 119° |
| 2026-05-08 18:59 | -7.46882 | 112.72347 | 1994 ft | 110 kts | 76° |
| 2026-05-08 19:00 | -7.46347 | 112.72869 | 1999 ft | 111 kts | 30° |
| 2026-05-08 19:00 | -7.45654 | 112.73209 | 1995 ft | 113 kts | 7° |
| 2026-05-08 19:00 | -7.44923 | 112.72939 | 2002 ft | 114 kts | 332° |
| 2026-05-08 19:00 | -7.44418 | 112.72361 | 1997 ft | 115 kts | 282° |
| 2026-05-08 19:01 | -7.44272 | 112.71569 | 2005 ft | 115 kts | 275° |
| 2026-05-08 19:01 | -7.44616 | 112.70901 | 1993 ft | 112 kts | 205° |
| 2026-05-08 19:01 | -7.45333 | 112.70991 | 1993 ft | 109 kts | 136° |
| 2026-05-08 19:01 | -7.45611 | 112.71686 | 2004 ft | 108 kts | 104° |
| 2026-05-08 19:02 | -7.45753 | 112.72429 | 1999 ft | 110 kts | 83° |
| 2026-05-08 19:02 | -7.45258 | 112.72975 | 2004 ft | 112 kts | 24° |
| 2026-05-08 19:02 | -7.44521 | 112.73237 | 1997 ft | 114 kts | 4° |
| 2026-05-08 19:02 | -7.43884 | 112.72846 | 1993 ft | 115 kts | 297° |
| 2026-05-08 19:03 | -7.43548 | 112.72117 | 2004 ft | 115 kts | 294° |
| 2026-05-08 19:03 | -7.43602 | 112.71360 | 1991 ft | 113 kts | 229° |
| 2026-05-08 19:03 | -7.44256 | 112.70947 | 2003 ft | 111 kts | 207° |
| 2026-05-08 19:03 | -7.44988 | 112.70873 | 1994 ft | 110 kts | 153° |
| 2026-05-08 19:04 | -7.45499 | 112.71412 | 2000 ft | 109 kts | 114° |
| 2026-05-08 19:04 | -7.45627 | 112.72151 | 1999 ft | 110 kts | 82° |
| 2026-05-08 19:04 | -7.45510 | 112.72910 | 1999 ft | 110 kts | 72° |
| 2026-05-08 19:04 | -7.44914 | 112.73339 | 1993 ft | 114 kts | 2° |
| 2026-05-08 19:05 | -7.44128 | 112.73253 | 2004 ft | 114 kts | 355° |
| 2026-05-08 19:05 | -7.43338 | 112.73162 | 2006 ft | 114 kts | 354° |
| 2026-05-08 19:05 | -7.42547 | 112.73083 | 2003 ft | 114 kts | 5° |
| 2026-05-08 19:05 | -7.41959 | 112.73537 | 1999 ft | 113 kts | 73° |
| 2026-05-08 19:06 | -7.41810 | 112.74334 | 2005 ft | 119 kts | 82° |
| 2026-05-08 19:06 | -7.42023 | 112.75119 | 2009 ft | 121 kts | 121° |
| 2026-05-08 19:06 | -7.42237 | 112.75936 | 2008 ft | 122 kts | 101° |
| 2026-05-08 19:06 | -7.42183 | 112.76774 | 1993 ft | 125 kts | 59° |
| 2026-05-08 19:07 | -7.41456 | 112.77146 | 1989 ft | 121 kts | 355° |
| 2026-05-08 19:07 | -7.40663 | 112.76886 | 1991 ft | 119 kts | 335° |
| 2026-05-08 19:07 | -7.40192 | 112.76232 | 1997 ft | 118 kts | 290° |
| 2026-05-08 19:07 | -7.39890 | 112.75398 | 1723 ft | 139 kts | 288° |
| 2026-05-08 19:08 | -7.39587 | 112.74513 | 1339 ft | 126 kts | 289° |
| 2026-05-08 19:08 | -7.39252 | 112.73715 | 940 ft | 118 kts | 296° |
| 2026-05-08 19:08 | -7.38725 | 112.73152 | 832 ft | 107 kts | 347° |
| 2026-05-08 19:08 | -7.38033 | 112.73279 | 758 ft | 110 kts | 25° |
| 2026-05-08 19:09 | -7.37504 | 112.73801 | 727 ft | 106 kts | 65° |
| 2026-05-08 19:09 | -7.37354 | 112.74537 | 628 ft | 109 kts | 84° |
| 2026-05-08 19:09 | -7.37451 | 112.75301 | 491 ft | 114 kts | 101° |
| 2026-05-08 19:09 | -7.37553 | 112.76095 | 293 ft | 115 kts | 103° |
| 2026-05-08 19:10 | -7.37693 | 112.76891 | 116 ft | 116 kts | 101° |
| 2026-05-08 19:10 | -7.37814 | 112.77642 | 6 ft | 98 kts | 101° |
| 2026-05-08 19:10 | -7.37905 | 112.78204 | 3 ft | 66 kts | 99° |
| 2026-05-08 19:10 | -7.37981 | 112.78597 | 4 ft | 50 kts | 92° |
| 2026-05-08 19:11 | -7.37996 | 112.78843 | 4 ft | 16 kts | 54° |
| 2026-05-08 19:11 | -7.37914 | 112.78864 | 4 ft | 11 kts | 8° |
| 2026-05-08 19:11 | -7.37849 | 112.78860 | 4 ft | 9 kts | 316° |
| 2026-05-08 19:11 | -7.37824 | 112.78786 | 4 ft | 17 kts | 281° |
| 2026-05-08 19:12 | -7.37800 | 112.78646 | 4 ft | 20 kts | 278° |
| 2026-05-08 19:12 | -7.37773 | 112.78523 | 4 ft | 16 kts | 302° |
| 2026-05-08 19:12 | -7.37692 | 112.78507 | 4 ft | 11 kts | 354° |
| 2026-05-08 19:12 | -7.37652 | 112.78468 | 4 ft | 6 kts | 335° |
| 2026-05-08 19:13 | -7.37618 | 112.78468 | 4 ft | 4 kts | 11° |
| 2026-05-08 19:13 | -7.37594 | 112.78472 | 4 ft | 2 kts | 7° |
| 2026-05-08 19:13 | -7.37593 | 112.78472 | 4 ft | 0 kts | 6° |
| 2026-05-08 19:17 | -7.37592 | 112.78473 | 4 ft | 3 kts | 17° |
| 2026-05-08 19:17 | -7.37611 | 112.78479 | 4 ft | 8 kts | 193° |
| 2026-05-08 19:17 | -7.37740 | 112.78504 | 4 ft | 19 kts | 169° |
| 2026-05-08 19:17 | -7.37794 | 112.78600 | 4 ft | 19 kts | 101° |
| 2026-05-08 19:18 | -7.37818 | 112.78736 | 4 ft | 21 kts | 101° |
| 2026-05-08 19:18 | -7.37815 | 112.78873 | 4 ft | 20 kts | 43° |
| 2026-05-08 19:18 | -7.37670 | 112.78904 | 4 ft | 24 kts | 8° |
| 2026-05-08 19:18 | -7.37534 | 112.78911 | 4 ft | 12 kts | 349° |
| 2026-05-08 19:19 | -7.37488 | 112.78917 | 4 ft | 2 kts | 9° |